createdAt,value
2017-06-10T00:00:50.195Z,8.30
2017-06-10T00:03:18.417Z,8.30
2017-06-10T00:05:46.859Z,9.73
2017-06-10T00:08:15.018Z,8.80
2017-06-10T00:10:43.219Z,7.90
2017-06-10T00:13:11.765Z,8.00
2017-06-10T00:15:40.079Z,8.10
2017-06-10T00:18:08.269Z,8.27
2017-06-10T00:20:37.415Z,9.47
2017-06-10T00:23:05.606Z,8.37
2017-06-10T00:25:33.796Z,10.43
2017-06-10T00:28:02.152Z,9.33
2017-06-10T00:30:30.347Z,8.30
2017-06-10T00:32:58.551Z,10.43
2017-06-10T00:35:27.076Z,9.40
2017-06-10T00:37:55.258Z,9.60
2017-06-10T00:40:23.502Z,10.13
2017-06-10T00:42:52.014Z,10.00
2017-06-10T00:45:20.188Z,10.00
2017-06-10T00:47:48.372Z,9.67
2017-06-10T00:50:16.835Z,10.83
2017-06-10T00:52:45.047Z,10.20
2017-06-10T00:55:13.224Z,9.67
2017-06-10T00:57:41.667Z,11.20
2017-06-10T01:00:09.846Z,10.53
2017-06-10T01:02:38.081Z,10.40
2017-06-10T01:05:06.434Z,9.93
2017-06-10T01:07:34.625Z,11.43
2017-06-10T01:10:02.869Z,10.40
2017-06-10T01:12:32.048Z,10.60
2017-06-10T01:15:01.021Z,11.50
2017-06-10T01:17:29.209Z,12.30
2017-06-10T01:19:57.673Z,12.00
2017-06-10T01:22:25.871Z,10.67
2017-06-10T01:24:54.058Z,11.20
2017-06-10T01:27:22.497Z,10.10
2017-06-10T01:29:50.805Z,10.20
2017-06-10T01:32:18.982Z,11.23
2017-06-10T01:34:48.331Z,10.10
2017-06-10T01:37:16.543Z,10.57
2017-06-10T01:39:44.743Z,9.00
2017-06-10T01:42:13.096Z,9.93
2017-06-10T01:44:42.161Z,10.37
2017-06-10T01:47:10.347Z,9.30
2017-06-10T01:49:38.864Z,10.37
2017-06-10T01:52:07.831Z,10.70
2017-06-10T01:54:36.136Z,11.07
2017-06-10T01:57:04.483Z,10.00
2017-06-10T01:59:32.679Z,9.50
2017-06-10T02:02:01.641Z,10.90
2017-06-10T02:04:30.027Z,10.23
2017-06-10T02:06:58.242Z,11.50
2017-06-10T02:09:26.434Z,10.67
2017-06-10T02:11:55.039Z,11.30
2017-06-10T02:14:23.234Z,9.87
2017-06-10T02:16:51.444Z,9.57
2017-06-10T02:19:19.829Z,9.20
2017-06-10T02:21:48.034Z,10.10
2017-06-10T02:24:16.216Z,10.30
2017-06-10T02:26:44.628Z,10.23
2017-06-10T02:29:12.824Z,10.23
2017-06-10T02:31:41.007Z,10.43
2017-06-10T02:34:09.442Z,9.90
2017-06-10T02:36:37.631Z,10.80
2017-06-10T02:39:05.829Z,9.50
2017-06-10T02:41:34.207Z,10.63
2017-06-10T02:44:02.398Z,10.03
2017-06-10T02:46:30.612Z,10.70
2017-06-10T02:48:59.735Z,10.40
2017-06-10T02:51:27.963Z,10.07
2017-06-10T02:53:56.153Z,10.30
2017-06-10T02:56:24.521Z,10.60
2017-06-10T02:58:52.767Z,9.50
2017-06-10T03:01:20.950Z,9.10
2017-06-10T03:03:49.302Z,10.03
2017-06-10T03:06:17.478Z,10.90
2017-06-10T03:08:45.694Z,10.90
2017-06-10T03:11:14.143Z,10.00
2017-06-10T03:13:42.316Z,11.10
2017-06-10T03:16:10.500Z,9.30
2017-06-10T03:18:39.074Z,9.20
2017-06-10T03:21:07.324Z,9.57
2017-06-10T03:23:35.606Z,11.27
2017-06-10T03:26:04.014Z,10.37
2017-06-10T03:28:32.191Z,9.30
2017-06-10T03:31:00.447Z,9.57
2017-06-10T03:33:28.878Z,8.87
2017-06-10T03:35:57.094Z,9.33
2017-06-10T03:38:25.310Z,8.03
2017-06-10T03:40:54.554Z,9.10
2017-06-10T03:43:22.927Z,8.57
2017-06-10T03:45:51.940Z,9.07
2017-06-10T03:48:20.433Z,9.63
2017-06-10T03:50:48.634Z,9.30
2017-06-10T03:53:16.810Z,9.30
2017-06-10T03:55:45.277Z,9.57
2017-06-10T03:58:13.567Z,7.87
2017-06-10T04:00:41.759Z,9.33
2017-06-10T04:03:10.108Z,9.47
2017-06-10T04:05:38.298Z,8.40
2017-06-10T04:08:06.529Z,8.60
2017-06-10T04:10:34.880Z,8.10
2017-06-10T04:13:03.138Z,9.00
2017-06-10T04:15:31.329Z,9.10
2017-06-10T04:17:59.694Z,9.20
2017-06-10T04:20:27.889Z,10.17
2017-06-10T04:22:56.083Z,8.80
2017-06-10T04:25:24.462Z,10.17
2017-06-10T04:27:52.641Z,9.13
2017-06-10T04:30:20.865Z,10.33
2017-06-10T04:32:49.468Z,10.43
2017-06-10T04:35:17.754Z,10.50
2017-06-10T04:37:45.989Z,10.20
2017-06-10T04:40:14.618Z,10.87
2017-06-10T04:42:42.831Z,8.90
2017-06-10T04:45:11.788Z,11.10
2017-06-10T04:47:40.376Z,9.97
2017-06-10T04:50:08.603Z,12.73
2017-06-10T04:52:36.804Z,9.67
2017-06-10T04:55:05.205Z,9.97
2017-06-10T04:57:33.403Z,9.33
2017-06-10T05:00:02.377Z,10.70
2017-06-10T05:02:30.849Z,10.33
2017-06-10T05:04:59.370Z,9.97
2017-06-10T05:07:27.555Z,10.07
2017-06-10T05:09:55.975Z,9.33
2017-06-10T05:12:24.182Z,9.47
2017-06-10T05:14:52.398Z,9.67
2017-06-10T05:17:20.876Z,10.23
2017-06-10T05:19:49.069Z,9.83
2017-06-10T05:22:17.256Z,8.40
2017-06-10T05:24:45.651Z,8.40
2017-06-10T05:27:14.638Z,8.40
2017-06-10T05:29:42.833Z,8.23
2017-06-10T05:32:11.298Z,7.60
2017-06-10T05:34:40.263Z,7.40
2017-06-10T05:37:08.458Z,6.90
2017-06-10T05:39:37.258Z,10.73
2017-06-10T05:42:06.252Z,7.73
2017-06-10T05:44:34.481Z,6.93
2017-06-10T05:47:03.050Z,7.50
2017-06-10T05:49:31.224Z,6.80
2017-06-10T05:51:59.422Z,6.30
2017-06-10T05:54:27.779Z,6.53
2017-06-10T05:56:56.178Z,6.90
2017-06-10T05:59:24.354Z,5.43
2017-06-10T06:01:52.887Z,6.57
2017-06-10T06:04:21.077Z,6.97
2017-06-10T06:06:49.256Z,6.30
2017-06-10T06:09:17.635Z,6.63
2017-06-10T06:11:45.845Z,6.87
2017-06-10T06:14:14.034Z,5.80
2017-06-10T06:16:42.578Z,5.53
2017-06-10T06:19:10.808Z,5.90
2017-06-10T06:21:39.027Z,7.60
2017-06-10T06:24:07.401Z,5.90
2017-06-10T06:26:35.620Z,6.67
2017-06-10T06:29:03.799Z,6.30
2017-06-10T06:31:32.170Z,7.57
2017-06-10T06:34:00.443Z,5.50
2017-06-10T06:36:28.632Z,7.10
2017-06-10T06:38:57.067Z,8.97
2017-06-10T06:41:25.256Z,7.40
2017-06-10T06:43:54.212Z,6.80
2017-06-10T06:46:22.728Z,8.23
2017-06-10T06:48:50.957Z,6.23
2017-06-10T06:51:19.142Z,4.97
2017-06-10T06:53:47.637Z,6.37
2017-06-10T06:56:15.885Z,7.83
2017-06-10T06:58:44.114Z,7.20
2017-06-10T07:01:12.533Z,7.07
2017-06-10T07:03:40.738Z,7.67
2017-06-10T07:06:08.936Z,6.40
2017-06-10T07:08:38.143Z,6.60
2017-06-10T07:11:06.358Z,8.40
2017-06-10T07:13:34.607Z,7.10
2017-06-10T07:16:03.495Z,6.70
2017-06-10T07:18:31.674Z,6.30
2017-06-10T07:20:59.879Z,7.30
2017-06-10T07:23:28.283Z,6.07
2017-06-10T07:25:56.508Z,6.93
2017-06-10T07:28:24.690Z,5.57
2017-06-10T07:30:53.082Z,6.50
2017-06-10T07:33:21.282Z,6.13
2017-06-10T07:35:49.555Z,6.13
2017-06-10T07:38:18.033Z,5.30
2017-06-10T07:40:46.233Z,5.50
2017-06-10T07:43:15.190Z,5.50
2017-06-10T07:45:43.709Z,5.03
2017-06-10T07:48:11.916Z,5.00
2017-06-10T07:50:40.191Z,6.20
2017-06-10T07:53:08.593Z,4.43
2017-06-10T07:55:36.787Z,4.50
2017-06-10T07:58:05.024Z,4.73
2017-06-10T08:00:33.419Z,5.47
2017-06-10T08:03:01.616Z,6.13
2017-06-10T08:05:29.828Z,5.63
2017-06-10T08:07:58.362Z,4.60
2017-06-10T08:10:26.585Z,5.93
2017-06-10T08:12:54.785Z,5.17
2017-06-10T08:15:23.185Z,5.43
2017-06-10T08:17:51.369Z,4.50
2017-06-10T08:20:19.590Z,4.67
2017-06-10T08:22:48.078Z,4.30
2017-06-10T08:25:16.350Z,4.33
2017-06-10T08:27:44.581Z,4.80
2017-06-10T08:30:13.123Z,3.77
2017-06-10T08:32:41.308Z,4.37
2017-06-10T08:35:09.514Z,4.20
2017-06-10T08:37:37.970Z,5.03
2017-06-10T08:40:06.209Z,3.70
2017-06-10T08:42:34.470Z,3.30
2017-06-10T08:45:02.845Z,3.63
2017-06-10T08:47:31.063Z,4.60
2017-06-10T08:49:59.296Z,2.77
2017-06-10T08:52:27.718Z,3.60
2017-06-10T08:54:55.981Z,4.10
2017-06-10T08:57:24.201Z,3.00
2017-06-10T08:59:52.606Z,3.63
2017-06-10T09:02:20.795Z,4.28
2017-06-10T09:04:48.992Z,3.80
2017-06-10T09:07:17.590Z,3.30
2017-06-10T09:09:45.867Z,3.80
2017-06-10T09:12:14.063Z,3.73
2017-06-10T09:14:42.524Z,2.73
2017-06-10T09:17:11.540Z,3.53
2017-06-10T09:19:39.723Z,3.73
2017-06-10T09:22:08.222Z,2.90
2017-06-10T09:24:36.442Z,3.30
2017-06-10T09:27:04.719Z,4.00
2017-06-10T09:29:33.133Z,4.13
2017-06-10T09:34:36.086Z,2.87
2017-06-10T09:37:04.266Z,3.40
2017-06-10T09:39:32.548Z,3.47
2017-06-10T09:42:00.930Z,3.13
2017-06-10T09:44:29.134Z,2.60
2017-06-10T09:46:57.326Z,3.90
2017-06-10T09:49:25.835Z,2.73
2017-06-10T09:51:54.076Z,2.83
2017-06-10T09:54:22.262Z,3.50
2017-06-10T09:56:50.683Z,2.50
2017-06-10T09:59:18.902Z,3.10
2017-06-10T10:01:47.102Z,2.40
2017-06-10T10:04:15.476Z,1.53
2017-06-10T10:06:43.677Z,2.20
2017-06-10T10:09:12.669Z,3.07
2017-06-10T10:11:41.146Z,2.50
2017-06-10T10:14:09.340Z,3.00
2017-06-10T10:16:37.506Z,2.00
2017-06-10T10:19:05.951Z,2.00
2017-06-10T10:21:34.153Z,2.17
2017-06-10T10:24:03.206Z,3.07
2017-06-10T10:26:31.624Z,2.60
2017-06-10T10:29:00.631Z,2.10
2017-06-10T10:31:28.873Z,2.53
2017-06-10T10:33:57.351Z,2.80
2017-06-10T10:36:25.587Z,2.67
2017-06-10T10:38:53.783Z,2.93
2017-06-10T10:41:22.220Z,2.57
2017-06-10T10:43:50.411Z,3.53
2017-06-10T10:46:18.596Z,2.97
2017-06-10T10:48:46.969Z,2.23
2017-06-10T10:51:15.290Z,2.87
2017-06-10T10:53:44.275Z,2.50
2017-06-10T10:56:12.746Z,2.10
2017-06-10T10:58:40.937Z,1.83
2017-06-10T11:01:09.143Z,2.70
2017-06-10T11:03:37.641Z,1.83
2017-06-10T11:06:05.905Z,3.50
2017-06-10T11:08:34.290Z,2.20
2017-06-10T11:11:02.804Z,2.17
2017-06-10T11:13:31.041Z,1.90
2017-06-10T11:15:59.280Z,2.10
2017-06-10T11:18:28.425Z,2.87
2017-06-10T11:20:56.727Z,2.60
2017-06-10T11:23:24.991Z,2.50
2017-06-10T11:25:53.572Z,2.90
2017-06-10T11:28:21.753Z,3.57
2017-06-10T11:30:49.965Z,2.80
2017-06-10T11:33:18.406Z,2.60
2017-06-10T11:35:46.587Z,2.80
2017-06-10T11:38:14.773Z,2.43
2017-06-10T11:40:43.212Z,3.00
2017-06-10T11:43:11.482Z,2.73
2017-06-10T11:45:39.756Z,2.70
2017-06-10T11:48:08.111Z,2.80
2017-06-10T11:50:36.312Z,2.30
2017-06-10T11:53:04.562Z,2.60
2017-06-10T11:55:32.921Z,2.67
2017-06-10T11:58:01.870Z,2.90
2017-06-10T12:00:30.071Z,2.30
2017-06-10T12:02:59.213Z,4.00
2017-06-10T12:05:27.414Z,2.87
2017-06-10T12:07:55.767Z,2.33
2017-06-10T12:10:24.174Z,2.90
2017-06-10T12:12:52.380Z,2.47
2017-06-10T12:15:21.325Z,1.90
2017-06-10T12:17:49.717Z,2.40
2017-06-10T12:20:17.913Z,3.07
2017-06-10T12:22:46.121Z,2.93
2017-06-10T12:25:14.549Z,3.50
2017-06-10T12:27:42.764Z,2.73
2017-06-10T12:30:11.002Z,3.40
2017-06-10T12:32:39.484Z,3.13
2017-06-10T12:35:07.682Z,2.50
2017-06-10T12:37:36.642Z,2.70
2017-06-10T12:40:05.015Z,3.70
2017-06-10T12:42:33.228Z,2.43
2017-06-10T12:45:01.402Z,3.00
2017-06-10T12:47:29.862Z,4.27
2017-06-10T12:49:58.120Z,3.73
2017-06-10T12:52:26.379Z,3.80
2017-06-10T12:54:54.782Z,4.17
2017-06-10T12:57:22.998Z,2.97
2017-06-10T12:59:51.250Z,4.17
2017-06-10T13:02:19.911Z,4.80
2017-06-10T13:04:48.930Z,28.97
2017-06-10T13:07:17.887Z,4.97
2017-06-10T13:09:46.363Z,14.37
2017-06-10T13:12:14.578Z,3.23
2017-06-10T13:14:43.506Z,2.87
2017-06-10T13:17:12.025Z,6.07
2017-06-10T13:19:41.027Z,4.10
2017-06-10T13:22:09.349Z,3.93
2017-06-10T13:24:37.773Z,3.37
2017-06-10T13:27:05.996Z,2.67
2017-06-10T13:29:34.214Z,2.93
2017-06-10T13:32:02.692Z,2.80
2017-06-10T13:34:30.930Z,3.63
2017-06-10T13:36:59.262Z,2.63
2017-06-10T13:39:27.631Z,2.80
2017-06-10T13:41:55.807Z,2.77
2017-06-10T13:44:24.018Z,2.93
2017-06-10T13:46:52.400Z,2.77
2017-06-10T13:49:20.721Z,3.20
2017-06-10T13:51:48.889Z,2.70
2017-06-10T13:54:17.259Z,3.17
2017-06-10T13:56:45.446Z,2.13
2017-06-10T13:59:13.785Z,1.83
2017-06-10T14:01:42.167Z,2.30
2017-06-10T14:04:10.369Z,2.33
2017-06-10T14:06:38.583Z,2.13
2017-06-10T14:09:06.973Z,2.37
2017-06-10T14:11:35.207Z,1.93
2017-06-10T14:14:04.169Z,2.27
2017-06-10T14:16:32.603Z,2.30
2017-06-10T14:19:00.865Z,2.20
2017-06-10T14:21:29.814Z,2.93
2017-06-10T14:23:58.309Z,2.93
2017-06-10T14:26:26.517Z,2.23
2017-06-10T14:28:54.823Z,2.33
2017-06-10T14:31:23.272Z,2.63
2017-06-10T14:33:52.259Z,2.00
2017-06-10T14:36:20.498Z,1.97
2017-06-10T14:38:49.013Z,1.97
2017-06-10T14:41:17.251Z,2.40
2017-06-10T14:43:45.614Z,2.13
2017-06-10T14:46:14.119Z,2.10
2017-06-10T14:48:42.309Z,2.83
2017-06-10T14:51:10.514Z,3.33
2017-06-10T14:53:39.140Z,2.60
2017-06-10T14:56:08.291Z,1.90
2017-06-10T14:58:36.512Z,3.40
2017-06-10T15:01:04.866Z,2.30
2017-06-10T15:03:33.130Z,2.40
2017-06-10T15:06:01.483Z,2.50
2017-06-10T15:08:30.869Z,2.37
2017-06-10T15:10:59.836Z,2.50
2017-06-10T15:13:28.088Z,2.23
2017-06-10T15:15:56.514Z,2.37
2017-06-10T15:18:24.726Z,2.07
2017-06-10T15:20:53.074Z,1.80
2017-06-10T15:23:22.343Z,2.57
2017-06-10T15:25:50.642Z,1.90
2017-06-10T15:28:18.929Z,1.97
2017-06-10T15:30:47.363Z,2.20
2017-06-10T15:33:15.576Z,2.10
2017-06-10T15:35:44.536Z,2.90
2017-06-10T15:38:13.044Z,2.20
2017-06-10T15:40:42.063Z,2.30
2017-06-10T15:43:10.286Z,1.80
2017-06-10T15:45:39.590Z,2.20
2017-06-10T15:48:07.833Z,2.27
2017-06-10T15:50:36.053Z,3.07
2017-06-10T15:53:05.235Z,2.23
2017-06-10T15:55:33.473Z,2.00
2017-06-10T15:58:01.674Z,1.87
2017-06-10T16:00:30.069Z,2.40
2017-06-10T16:02:58.283Z,2.27
2017-06-10T16:05:26.487Z,2.27
2017-06-10T16:07:54.889Z,2.40
2017-06-10T16:10:23.148Z,2.50
2017-06-10T16:12:51.327Z,2.10
2017-06-10T16:15:19.746Z,1.57
2017-06-10T16:17:47.959Z,1.63
2017-06-10T16:20:16.174Z,2.17
2017-06-10T16:22:44.573Z,2.07
2017-06-10T16:25:12.877Z,2.50
2017-06-10T16:27:41.083Z,2.90
2017-06-10T16:30:09.585Z,3.23
2017-06-10T16:32:37.754Z,3.20
2017-06-10T16:35:05.938Z,3.00
2017-06-10T16:37:35.082Z,2.87
2017-06-10T16:40:03.281Z,2.90
2017-06-10T16:42:31.473Z,2.50
2017-06-10T16:44:59.931Z,2.40
2017-06-10T16:47:28.146Z,3.07
2017-06-10T16:49:56.316Z,2.43
2017-06-10T16:52:25.552Z,3.00
2017-06-10T16:54:53.748Z,2.37
2017-06-10T16:57:21.947Z,2.80
2017-06-10T16:59:51.178Z,2.80
2017-06-10T17:02:19.391Z,3.17
2017-06-10T17:04:47.597Z,3.13
2017-06-10T17:07:16.751Z,3.30
2017-06-10T17:09:44.956Z,5.10
2017-06-10T17:12:13.165Z,4.13
2017-06-10T17:14:41.562Z,3.83
2017-06-10T17:17:09.800Z,3.90
2017-06-10T17:19:38.735Z,3.40
2017-06-10T17:22:07.146Z,3.17
2017-06-10T17:24:35.426Z,3.80
2017-06-10T17:27:03.618Z,3.83
2017-06-10T17:29:32.804Z,3.53
2017-06-10T17:32:01.845Z,3.50
2017-06-10T17:34:30.048Z,3.87
2017-06-10T17:36:58.471Z,3.53
2017-06-10T17:39:26.677Z,3.87
2017-06-10T17:41:54.935Z,3.70
2017-06-10T17:44:23.342Z,2.97
2017-06-10T17:46:51.577Z,3.57
2017-06-10T17:49:19.820Z,3.40
2017-06-10T17:51:48.216Z,4.50
2017-06-10T17:54:17.170Z,4.97
2017-06-10T17:56:45.395Z,4.50
2017-06-10T17:59:13.960Z,5.00
2017-06-10T18:01:42.152Z,5.43
2017-06-10T18:04:10.374Z,6.63
2017-06-10T18:06:38.743Z,5.60
2017-06-10T18:09:06.944Z,7.07
2017-06-10T18:11:35.144Z,6.17
2017-06-10T18:14:03.696Z,4.80
2017-06-10T18:16:32.718Z,4.40
2017-06-10T18:19:00.939Z,4.60
2017-06-10T18:21:29.267Z,5.07
2017-06-10T18:23:57.450Z,4.40
2017-06-10T18:26:25.694Z,5.20
2017-06-10T18:28:54.846Z,4.50
2017-06-10T18:31:23.041Z,5.23
2017-06-10T18:33:51.282Z,5.40
2017-06-10T18:36:19.634Z,6.07
2017-06-10T18:38:48.575Z,6.07
2017-06-10T18:41:16.915Z,5.00
2017-06-10T18:43:45.307Z,6.00
2017-06-10T18:46:13.479Z,5.47
2017-06-10T18:48:41.652Z,5.83
2017-06-10T18:51:10.064Z,5.03
2017-06-10T18:53:38.308Z,5.30
2017-06-10T18:56:06.529Z,5.87
2017-06-10T18:58:35.693Z,5.13
2017-06-10T19:01:03.879Z,5.50
2017-06-10T19:03:32.123Z,5.73
2017-06-10T19:06:00.370Z,6.07
2017-06-10T19:08:28.583Z,6.80
2017-06-10T19:10:56.859Z,7.10
2017-06-10T19:13:25.069Z,5.90
2017-06-10T19:15:53.435Z,6.60
2017-06-10T19:18:21.613Z,6.63
2017-06-10T19:20:49.852Z,5.73
2017-06-10T19:23:18.253Z,5.90
2017-06-10T19:25:46.451Z,5.93
2017-06-10T19:28:14.689Z,6.77
2017-06-10T19:30:43.091Z,5.60
2017-06-10T19:33:11.357Z,5.23
2017-06-10T19:35:39.629Z,6.03
2017-06-10T19:38:08.136Z,5.70
2017-06-10T19:40:36.460Z,5.60
2017-06-10T19:43:04.768Z,6.77
2017-06-10T19:45:33.273Z,7.47
2017-06-10T19:48:02.255Z,6.67
2017-06-10T19:50:30.462Z,6.60
2017-06-10T19:52:58.834Z,5.63
2017-06-10T19:55:27.046Z,5.40
2017-06-10T19:57:55.266Z,5.97
2017-06-10T20:00:23.730Z,5.73
2017-06-10T20:02:52.666Z,7.50
2017-06-10T20:05:20.925Z,6.97
2017-06-10T20:07:49.378Z,6.70
2017-06-10T20:10:17.612Z,6.90
2017-06-10T20:12:45.806Z,7.07
2017-06-10T20:15:14.283Z,7.00
2017-06-10T20:17:42.505Z,7.60
2017-06-10T20:20:11.603Z,7.90
2017-06-10T20:22:40.167Z,7.87
2017-06-10T20:25:09.170Z,7.40
2017-06-10T20:27:37.370Z,6.47
2017-06-10T20:30:05.899Z,6.50
2017-06-10T20:32:34.117Z,8.13
2017-06-10T20:35:02.363Z,7.17
2017-06-10T20:37:30.838Z,6.60
2017-06-10T20:39:59.084Z,7.30
2017-06-10T20:42:27.338Z,7.17
2017-06-10T20:44:55.703Z,7.03
2017-06-10T20:47:23.907Z,7.17
2017-06-10T20:49:52.114Z,6.90
2017-06-10T20:52:20.672Z,7.40
2017-06-10T20:54:48.879Z,7.63
2017-06-10T20:57:17.237Z,6.83
2017-06-10T20:59:45.832Z,6.63
2017-06-10T21:02:14.063Z,6.47
2017-06-10T21:04:42.390Z,7.03
2017-06-10T21:07:10.775Z,8.50
2017-06-10T21:09:39.005Z,7.90
2017-06-10T21:12:07.197Z,6.60
2017-06-10T21:14:35.637Z,7.50
2017-06-10T21:17:03.834Z,9.13
2017-06-10T21:19:32.031Z,8.40
2017-06-10T21:22:00.394Z,7.23
2017-06-10T21:24:28.622Z,9.83
2017-06-10T21:26:56.812Z,9.37
2017-06-10T21:29:25.235Z,7.90
2017-06-10T21:31:54.203Z,8.27
2017-06-10T21:34:22.414Z,7.60
2017-06-10T21:36:51.653Z,7.90
2017-06-10T21:39:19.906Z,8.33
2017-06-10T21:41:48.095Z,8.00
2017-06-10T21:44:16.526Z,7.90
2017-06-10T21:46:44.758Z,7.57
2017-06-10T21:49:12.945Z,8.80
2017-06-10T21:51:41.457Z,8.67
2017-06-10T21:54:10.420Z,7.70
2017-06-10T21:56:38.637Z,8.07
2017-06-10T21:59:07.034Z,8.37
2017-06-10T22:01:35.226Z,9.07
2017-06-10T22:04:03.378Z,9.20
2017-06-10T22:06:31.915Z,9.53
2017-06-10T22:09:00.172Z,10.50
2017-06-10T22:11:28.414Z,10.00
2017-06-10T22:13:56.769Z,9.97
2017-06-10T22:16:24.969Z,9.73
2017-06-10T22:18:53.146Z,10.10
2017-06-10T22:21:21.892Z,10.40
2017-06-10T22:23:50.082Z,9.13
2017-06-10T22:26:18.287Z,8.90
2017-06-10T22:28:46.786Z,11.57
2017-06-10T22:31:15.026Z,10.77
2017-06-10T22:33:43.262Z,10.90
2017-06-10T22:36:11.672Z,9.80
2017-06-10T22:38:39.850Z,11.10
2017-06-10T22:41:08.029Z,11.20
2017-06-10T22:43:36.445Z,11.90
2017-06-10T22:46:04.633Z,12.67
2017-06-10T22:48:33.623Z,10.80
2017-06-10T22:51:02.772Z,12.00
2017-06-10T22:53:30.991Z,11.13
2017-06-10T22:55:59.201Z,10.93
2017-06-10T22:58:27.602Z,11.10
2017-06-10T23:00:55.790Z,9.80
2017-06-10T23:03:23.957Z,10.67
2017-06-10T23:05:52.361Z,10.17
2017-06-10T23:08:20.602Z,10.00
2017-06-10T23:10:48.808Z,10.20
2017-06-10T23:13:17.214Z,9.67
2017-06-10T23:15:46.154Z,10.37
2017-06-10T23:18:14.435Z,9.60
2017-06-10T23:20:42.934Z,9.10
2017-06-10T23:23:11.141Z,11.13
2017-06-10T23:25:39.342Z,10.13
2017-06-10T23:28:07.700Z,9.27
2017-06-10T23:30:35.882Z,9.77
2017-06-10T23:33:04.101Z,9.80
2017-06-10T23:35:32.478Z,11.00
2017-06-10T23:38:00.656Z,10.40
2017-06-10T23:40:28.891Z,10.30
2017-06-10T23:42:57.423Z,10.23
2017-06-10T23:45:25.646Z,11.33
2017-06-10T23:47:53.878Z,10.67
2017-06-10T23:50:23.079Z,10.30
2017-06-10T23:52:51.305Z,10.80
2017-06-10T23:55:19.588Z,10.30
2017-06-10T23:57:47.983Z,9.80
